sensor_id;sensor_type;location;lat;lon;timestamp;pressure;altitude;pressure_sealevel;temperature;humidity
17383;BME280;8809;51.892;8.384;2023-06-22T00:00:20;100900.78;;;20.98;100.00
17383;BME280;8809;51.892;8.384;2023-06-22T00:02:57;100892.78;;;20.95;100.00
17383;BME280;8809;51.892;8.384;2023-06-22T00:05:26;100889.28;;;20.93;100.00
17383;BME280;8809;51.892;8.384;2023-06-22T00:07:53;100887.50;;;20.91;100.00
17383;BME280;8809;51.892;8.384;2023-06-22T00:10:27;100888.34;;;20.88;100.00
17383;BME280;8809;51.892;8.384;2023-06-22T00:12:57;100891.00;;;20.85;100.00
17383;BME280;8809;51.892;8.384;2023-06-22T00:15:33;100883.91;;;20.83;100.00
17383;BME280;8809;51.892;8.384;2023-06-22T00:18:01;100878.59;;;20.81;100.00
17383;BME280;8809;51.892;8.384;2023-06-22T00:20:30;100870.63;;;20.78;100.00
17383;BME280;8809;51.892;8.384;2023-06-22T00:22:59;100873.28;;;20.78;100.00
17383;BME280;8809;51.892;8.384;2023-06-22T00:25:27;100872.41;;;20.76;100.00
17383;BME280;8809;51.892;8.384;2023-06-22T00:27:54;100873.28;;;20.75;100.00
17383;BME280;8809;51.892;8.384;2023-06-22T00:30:23;100869.75;;;20.74;100.00
17383;BME280;8809;51.892;8.384;2023-06-22T00:32:53;100867.09;;;20.73;100.00
17383;BME280;8809;51.892;8.384;2023-06-22T00:45:37;100835.22;;;20.68;100.00
17383;BME280;8809;51.892;8.384;2023-06-22T00:48:15;100837.88;;;20.68;100.00
17383;BME280;8809;51.892;8.384;2023-06-22T00:50:43;100844.97;;;20.66;100.00
17383;BME280;8809;51.892;8.384;2023-06-22T00:53:10;100844.97;;;20.65;100.00
17383;BME280;8809;51.892;8.384;2023-06-22T00:55:41;100844.94;;;20.63;100.00
17383;BME280;8809;51.892;8.384;2023-06-22T00:58:11;100838.75;;;20.63;100.00
17383;BME280;8809;51.892;8.384;2023-06-22T01:00:40;100844.03;;;20.60;100.00
17383;BME280;8809;51.892;8.384;2023-06-22T01:03:07;100842.25;;;20.59;100.00
17383;BME280;8809;51.892;8.384;2023-06-22T01:05:37;100844.03;;;20.54;100.00
17383;BME280;8809;51.892;8.384;2023-06-22T01:08:15;100848.41;;;20.50;100.00
17383;BME280;8809;51.892;8.384;2023-06-22T01:10:50;100840.44;;;20.49;100.00
17383;BME280;8809;51.892;8.384;2023-06-22T01:13:25;100837.78;;;20.49;100.00
17383;BME280;8809;51.892;8.384;2023-06-22T01:16:00;100842.22;;;20.47;100.00
17383;BME280;8809;51.892;8.384;2023-06-22T01:18:30;100837.81;;;20.47;100.00
17383;BME280;8809;51.892;8.384;2023-06-22T01:21:00;100841.34;;;20.46;100.00
17383;BME280;8809;51.892;8.384;2023-06-22T01:23:45;100834.25;;;20.45;100.00
17383;BME280;8809;51.892;8.384;2023-06-22T01:26:19;100839.53;;;20.44;100.00
17383;BME280;8809;51.892;8.384;2023-06-22T01:28:52;100830.72;;;20.43;100.00
17383;BME280;8809;51.892;8.384;2023-06-22T01:31:23;100828.94;;;20.42;100.00
17383;BME280;8809;51.892;8.384;2023-06-22T01:33:53;100833.34;;;20.40;100.00
17383;BME280;8809;51.892;8.384;2023-06-22T01:54:56;100842.06;;;20.30;100.00
17383;BME280;8809;51.892;8.384;2023-06-22T01:57:23;100836.75;;;20.28;100.00
17383;BME280;8809;51.892;8.384;2023-06-22T01:59:58;100835.00;;;20.27;100.00
17383;BME280;8809;51.892;8.384;2023-06-22T02:02:33;100844.72;;;20.25;100.00
17383;BME280;8809;51.892;8.384;2023-06-22T02:05:06;100836.75;;;20.25;100.00
17383;BME280;8809;51.892;8.384;2023-06-22T02:07:40;100841.16;;;20.22;100.00
17383;BME280;8809;51.892;8.384;2023-06-22T02:10:11;100849.09;;;20.23;100.00
17383;BME280;8809;51.892;8.384;2023-06-22T02:12:41;100849.97;;;20.21;100.00
17383;BME280;8809;51.892;8.384;2023-06-22T02:15:10;100842.88;;;20.20;100.00
17383;BME280;8809;51.892;8.384;2023-06-22T02:17:38;100844.66;;;20.19;100.00
17383;BME280;8809;51.892;8.384;2023-06-22T02:20:12;100860.53;;;20.19;100.00
17383;BME280;8809;51.892;8.384;2023-06-22T02:22:40;100845.56;;;20.18;100.00
17383;BME280;8809;51.892;8.384;2023-06-22T02:25:07;100859.69;;;20.17;100.00
17383;BME280;8809;51.892;8.384;2023-06-22T02:27:36;100853.50;;;20.17;100.00
17383;BME280;8809;51.892;8.384;2023-06-22T02:30:07;100850.81;;;20.15;100.00
17383;BME280;8809;51.892;8.384;2023-06-22T02:32:35;100849.06;;;20.14;100.00
17383;BME280;8809;51.892;8.384;2023-06-22T02:42:49;100849.91;;;20.13;100.00
17383;BME280;8809;51.892;8.384;2023-06-22T02:45:16;100839.31;;;20.12;100.00
17383;BME280;8809;51.892;8.384;2023-06-22T02:47:44;100838.41;;;20.11;100.00
17383;BME280;8809;51.892;8.384;2023-06-22T02:50:11;100854.31;;;20.11;100.00
17383;BME280;8809;51.892;8.384;2023-06-22T02:52:38;100844.59;;;20.10;100.00
17383;BME280;8809;51.892;8.384;2023-06-22T02:55:06;100848.13;;;20.09;100.00
17383;BME280;8809;51.892;8.384;2023-06-22T02:57:34;100844.59;;;20.10;100.00
17383;BME280;8809;51.892;8.384;2023-06-22T03:00:04;100845.47;;;20.09;100.00
17383;BME280;8809;51.892;8.384;2023-06-22T03:02:42;100838.41;;;20.07;100.00
17383;BME280;8809;51.892;8.384;2023-06-22T03:05:09;100838.41;;;20.07;100.00
17383;BME280;8809;51.892;8.384;2023-06-22T03:07:39;100839.28;;;20.06;100.00
17383;BME280;8809;51.892;8.384;2023-06-22T03:10:08;100835.75;;;20.05;100.00
17383;BME280;8809;51.892;8.384;2023-06-22T03:12:36;100841.91;;;20.04;100.00
17383;BME280;8809;51.892;8.384;2023-06-22T03:15:07;100841.91;;;20.04;100.00
17383;BME280;8809;51.892;8.384;2023-06-22T03:17:35;100827.75;;;20.02;100.00
17383;BME280;8809;51.892;8.384;2023-06-22T03:20:04;100826.88;;;20.01;100.00
17383;BME280;8809;51.892;8.384;2023-06-22T03:22:36;100830.41;;;20.00;100.00
17383;BME280;8809;51.892;8.384;2023-06-22T03:25:04;100829.50;;;20.00;100.00
17383;BME280;8809;51.892;8.384;2023-06-22T03:27:35;100831.28;;;19.98;100.00
17383;BME280;8809;51.892;8.384;2023-06-22T03:30:03;100830.41;;;19.97;100.00
17383;BME280;8809;51.892;8.384;2023-06-22T03:32:32;100830.38;;;19.96;100.00
17383;BME280;8809;51.892;8.384;2023-06-22T03:53:22;100825.03;;;19.91;100.00
17383;BME280;8809;51.892;8.384;2023-06-22T03:55:50;100820.63;;;19.89;100.00
17383;BME280;8809;51.892;8.384;2023-06-22T03:58:18;100820.63;;;19.89;100.00
17383;BME280;8809;51.892;8.384;2023-06-22T04:00:48;100827.69;;;19.90;100.00
17383;BME280;8809;51.892;8.384;2023-06-22T04:03:16;100817.06;;;19.90;100.00
17383;BME280;8809;51.892;8.384;2023-06-22T04:05:44;100820.63;;;19.90;100.00
17383;BME280;8809;51.892;8.384;2023-06-22T04:08:12;100820.63;;;19.89;100.00
17383;BME280;8809;51.892;8.384;2023-06-22T04:10:40;100825.03;;;19.91;100.00
17383;BME280;8809;51.892;8.384;2023-06-22T04:13:08;100825.91;;;19.90;100.00
17383;BME280;8809;51.892;8.384;2023-06-22T04:15:35;100825.03;;;19.91;100.00
17383;BME280;8809;51.892;8.384;2023-06-22T04:18:02;100818.00;;;19.92;100.00
17383;BME280;8809;51.892;8.384;2023-06-22T04:20:30;100827.72;;;19.93;100.00
17383;BME280;8809;51.892;8.384;2023-06-22T04:22:57;100825.06;;;19.93;100.00
17383;BME280;8809;51.892;8.384;2023-06-22T04:25:25;100824.19;;;19.94;100.00
17383;BME280;8809;51.892;8.384;2023-06-22T04:27:53;100832.13;;;19.94;100.00
17383;BME280;8809;51.892;8.384;2023-06-22T04:30:20;100834.81;;;19.97;100.00
17383;BME280;8809;51.892;8.384;2023-06-22T04:32:48;100836.56;;;19.99;100.00
17383;BME280;8809;51.892;8.384;2023-06-22T04:48:17;100819.91;;;20.13;100.00
17383;BME280;8809;51.892;8.384;2023-06-22T04:50:44;100811.06;;;20.14;100.00
17383;BME280;8809;51.892;8.384;2023-06-22T04:53:11;100827.88;;;20.17;100.00
17383;BME280;8809;51.892;8.384;2023-06-22T04:55:39;100814.63;;;20.20;100.00
17383;BME280;8809;51.892;8.384;2023-06-22T04:58:07;100813.78;;;20.24;100.00
17383;BME280;8809;51.892;8.384;2023-06-22T05:00:34;100817.34;;;20.29;100.00
17383;BME280;8809;51.892;8.384;2023-06-22T05:03:02;100809.47;;;20.35;100.00
17383;BME280;8809;51.892;8.384;2023-06-22T05:05:33;100815.66;;;20.41;100.00
17383;BME280;8809;51.892;8.384;2023-06-22T05:08:01;100803.31;;;20.43;100.00
17383;BME280;8809;51.892;8.384;2023-06-22T05:10:28;100815.72;;;20.50;100.00
17383;BME280;8809;51.892;8.384;2023-06-22T05:12:56;100804.25;;;20.52;100.00
17383;BME280;8809;51.892;8.384;2023-06-22T05:15:23;100805.16;;;20.56;100.00
17383;BME280;8809;51.892;8.384;2023-06-22T05:17:56;100803.38;;;20.59;100.00
17383;BME280;8809;51.892;8.384;2023-06-22T05:20:24;100802.53;;;20.63;100.00
17383;BME280;8809;51.892;8.384;2023-06-22T05:22:52;100804.31;;;20.66;100.00
17383;BME280;8809;51.892;8.384;2023-06-22T05:25:20;100800.75;;;20.68;100.00
17383;BME280;8809;51.892;8.384;2023-06-22T05:27:47;100807.88;;;20.72;100.00
17383;BME280;8809;51.892;8.384;2023-06-22T05:30:18;100802.59;;;20.76;100.00
17383;BME280;8809;51.892;8.384;2023-06-22T05:32:45;100807.00;;;20.80;100.00
17383;BME280;8809;51.892;8.384;2023-06-22T05:55:56;100811.50;;;21.13;100.00
17383;BME280;8809;51.892;8.384;2023-06-22T05:58:23;100813.31;;;21.18;100.00
17383;BME280;8809;51.892;8.384;2023-06-22T06:00:53;100817.78;;;21.24;100.00
17383;BME280;8809;51.892;8.384;2023-06-22T06:03:20;100823.06;;;21.30;100.00
17383;BME280;8809;51.892;8.384;2023-06-22T06:05:47;100807.16;;;21.33;100.00
17383;BME280;8809;51.892;8.384;2023-06-22T06:08:17;100829.28;;;21.39;100.00
17383;BME280;8809;51.892;8.384;2023-06-22T06:10:45;100819.56;;;21.43;100.00
17383;BME280;8809;51.892;8.384;2023-06-22T06:13:14;100816.88;;;21.46;100.00
17383;BME280;8809;51.892;8.384;2023-06-22T06:15:41;100827.50;;;21.49;100.00
17383;BME280;8809;51.892;8.384;2023-06-22T06:18:08;100827.53;;;21.52;100.00
17383;BME280;8809;51.892;8.384;2023-06-22T06:20:35;100823.09;;;21.57;100.00
17383;BME280;8809;51.892;8.384;2023-06-22T06:23:03;100823.06;;;21.63;100.00
17383;BME280;8809;51.892;8.384;2023-06-22T06:25:30;100818.66;;;21.68;100.00
17383;BME280;8809;51.892;8.384;2023-06-22T06:27:57;100817.75;;;21.72;100.00
17383;BME280;8809;51.892;8.384;2023-06-22T06:30:26;100823.09;;;21.78;100.00
17383;BME280;8809;51.892;8.384;2023-06-22T06:32:53;100830.16;;;21.85;100.00
17383;BME280;8809;51.892;8.384;2023-06-22T06:48:18;100823.06;;;22.21;100.00
17383;BME280;8809;51.892;8.384;2023-06-22T06:50:47;100831.91;;;22.26;100.00
17383;BME280;8809;51.892;8.384;2023-06-22T06:53:15;100829.25;;;22.29;100.00
17383;BME280;8809;51.892;8.384;2023-06-22T06:55:42;100823.03;;;22.32;100.00
17383;BME280;8809;51.892;8.384;2023-06-22T06:58:11;100819.47;;;22.34;100.00
17383;BME280;8809;51.892;8.384;2023-06-22T07:00:39;100827.47;;;22.36;100.00
17383;BME280;8809;51.892;8.384;2023-06-22T07:03:18;100834.53;;;22.37;100.00
17383;BME280;8809;51.892;8.384;2023-06-22T07:05:45;100831.88;;;22.38;100.00
17383;BME280;8809;51.892;8.384;2023-06-22T07:08:15;100838.06;;;22.40;100.00
17383;BME280;8809;51.892;8.384;2023-06-22T07:10:42;100830.97;;;22.42;100.00
17383;BME280;8809;51.892;8.384;2023-06-22T07:13:09;100833.63;;;22.45;100.00
17383;BME280;8809;51.892;8.384;2023-06-22T07:15:38;100830.09;;;22.46;100.00
17383;BME280;8809;51.892;8.384;2023-06-22T07:18:05;100831.84;;;22.47;100.00
17383;BME280;8809;51.892;8.384;2023-06-22T07:20:34;100831.81;;;22.50;100.00
17383;BME280;8809;51.892;8.384;2023-06-22T07:23:01;100829.16;;;22.52;100.00
17383;BME280;8809;51.892;8.384;2023-06-22T07:25:29;100830.06;;;22.55;100.00
17383;BME280;8809;51.892;8.384;2023-06-22T07:27:58;100823.84;;;22.56;100.00
17383;BME280;8809;51.892;8.384;2023-06-22T07:30:27;100831.78;;;22.59;100.00
17383;BME280;8809;51.892;8.384;2023-06-22T07:32:57;100822.06;;;22.58;100.00
17383;BME280;8809;51.892;8.384;2023-06-22T07:45:49;100822.03;;;22.65;100.00
17383;BME280;8809;51.892;8.384;2023-06-22T07:48:20;100812.28;;;22.67;100.00
17383;BME280;8809;51.892;8.384;2023-06-22T07:50:48;100813.13;;;22.70;100.00
17383;BME280;8809;51.892;8.384;2023-06-22T07:53:18;100814.00;;;22.74;100.00
17383;BME280;8809;51.892;8.384;2023-06-22T07:55:46;100809.63;;;22.77;100.00
17383;BME280;8809;51.892;8.384;2023-06-22T07:58:14;100812.22;;;22.82;100.00
17383;BME280;8809;51.892;8.384;2023-06-22T08:00:49;100816.66;;;22.87;100.00
17383;BME280;8809;51.892;8.384;2023-06-22T08:03:17;100804.19;;;22.89;100.00
17383;BME280;8809;51.892;8.384;2023-06-22T08:05:44;100803.31;;;22.95;100.00
17383;BME280;8809;51.892;8.384;2023-06-22T08:08:12;100801.53;;;22.97;100.00
17383;BME280;8809;51.892;8.384;2023-06-22T08:10:40;100804.16;;;23.00;100.00
17383;BME280;8809;51.892;8.384;2023-06-22T08:13:08;100803.25;;;23.01;100.00
17383;BME280;8809;51.892;8.384;2023-06-22T08:15:41;100793.50;;;23.02;100.00
17383;BME280;8809;51.892;8.384;2023-06-22T08:18:10;100794.38;;;23.02;100.00
17383;BME280;8809;51.892;8.384;2023-06-22T08:20:39;100793.50;;;23.06;100.00
17383;BME280;8809;51.892;8.384;2023-06-22T08:23:09;100778.38;;;23.08;100.00
17383;BME280;8809;51.892;8.384;2023-06-22T08:25:36;100767.72;;;23.11;100.00
17383;BME280;8809;51.892;8.384;2023-06-22T08:28:04;100765.91;;;23.15;100.00
17383;BME280;8809;51.892;8.384;2023-06-22T08:30:31;100757.91;;;23.18;100.00
17383;BME280;8809;51.892;8.384;2023-06-22T08:32:59;100758.75;;;23.23;100.00
17383;BME280;8809;51.892;8.384;2023-06-22T08:45:48;100761.97;;;23.66;100.00
17383;BME280;8809;51.892;8.384;2023-06-22T08:48:16;100748.59;;;23.72;100.00
17383;BME280;8809;51.892;8.384;2023-06-22T08:50:43;100749.41;;;23.80;100.00
17383;BME280;8809;51.892;8.384;2023-06-22T08:53:10;100741.31;;;23.89;100.00
17383;BME280;8809;51.892;8.384;2023-06-22T08:55:37;100739.44;;;23.97;100.00
17383;BME280;8809;51.892;8.384;2023-06-22T08:58:04;100739.41;;;24.02;100.00
17383;BME280;8809;51.892;8.384;2023-06-22T09:00:32;100744.66;;;24.08;100.00
17383;BME280;8809;51.892;8.384;2023-06-22T09:03:02;100750.75;;;24.19;100.00
17383;BME280;8809;51.892;8.384;2023-06-22T09:05:30;100748.91;;;24.26;100.00
17383;BME280;8809;51.892;8.384;2023-06-22T09:07:57;100747.13;;;24.29;100.00
17383;BME280;8809;51.892;8.384;2023-06-22T09:10:25;100747.94;;;24.33;100.00
17383;BME280;8809;51.892;8.384;2023-06-22T09:12:53;100737.25;;;24.34;100.00
17383;BME280;8809;51.892;8.384;2023-06-22T09:15:20;100730.13;;;24.36;100.00
17383;BME280;8809;51.892;8.384;2023-06-22T09:17:47;100735.47;;;24.36;100.00
17383;BME280;8809;51.892;8.384;2023-06-22T09:20:16;100737.19;;;24.40;100.00
17383;BME280;8809;51.892;8.384;2023-06-22T09:22:47;100733.59;;;24.43;100.00
17383;BME280;8809;51.892;8.384;2023-06-22T09:25:15;100730.63;;;24.64;100.00
17383;BME280;8809;51.892;8.384;2023-06-22T09:27:43;100741.00;;;24.86;100.00
17383;BME280;8809;51.892;8.384;2023-06-22T09:30:10;100740.00;;;24.97;100.00
17383;BME280;8809;51.892;8.384;2023-06-22T09:32:39;100740.50;;;25.19;100.00
17383;BME280;8809;51.892;8.384;2023-06-22T09:35:07;100737.53;;;25.39;100.00
17383;BME280;8809;51.892;8.384;2023-06-22T09:37:40;100730.06;;;25.61;100.00
17383;BME280;8809;51.892;8.384;2023-06-22T09:40:11;100720.78;;;25.81;100.00
17383;BME280;8809;51.892;8.384;2023-06-22T09:42:39;100715.94;;;26.00;100.00
17383;BME280;8809;51.892;8.384;2023-06-22T09:45:09;100704.81;;;26.21;100.00
17383;BME280;8809;51.892;8.384;2023-06-22T09:47:37;100701.75;;;26.41;100.00
17383;BME280;8809;51.892;8.384;2023-06-22T09:50:05;100699.59;;;26.58;100.00
17383;BME280;8809;51.892;8.384;2023-06-22T09:52:32;100691.16;;;26.75;100.00
17383;BME280;8809;51.892;8.384;2023-06-22T09:55:01;100695.28;;;26.90;100.00
17383;BME280;8809;51.892;8.384;2023-06-22T09:57:30;100702.13;;;27.03;100.00
17383;BME280;8809;51.892;8.384;2023-06-22T09:59:57;100694.72;;;27.14;100.00
17383;BME280;8809;51.892;8.384;2023-06-22T10:02:24;100689.03;;;27.28;100.00
17383;BME280;8809;51.892;8.384;2023-06-22T10:04:51;100701.13;;;27.43;100.00
17383;BME280;8809;51.892;8.384;2023-06-22T10:07:20;100701.72;;;27.55;100.00
17383;BME280;8809;51.892;8.384;2023-06-22T10:09:47;100705.00;;;27.66;100.00
17383;BME280;8809;51.892;8.384;2023-06-22T10:12:19;100710.97;;;27.78;100.00
17383;BME280;8809;51.892;8.384;2023-06-22T10:14:46;100709.94;;;27.82;100.00
17383;BME280;8809;51.892;8.384;2023-06-22T10:17:13;100704.31;;;27.91;100.00
17383;BME280;8809;51.892;8.384;2023-06-22T10:19:41;100703.97;;;28.03;100.00
17383;BME280;8809;51.892;8.384;2023-06-22T10:22:08;100703.72;;;28.12;100.00
17383;BME280;8809;51.892;8.384;2023-06-22T10:24:42;100700.81;;;28.21;100.00
17383;BME280;8809;51.892;8.384;2023-06-22T10:27:13;100701.53;;;28.26;100.00
17383;BME280;8809;51.892;8.384;2023-06-22T10:29:41;100693.44;;;28.28;100.00
17383;BME280;8809;51.892;8.384;2023-06-22T10:32:08;100694.97;;;28.36;100.00
17383;BME280;8809;51.892;8.384;2023-06-22T10:34:36;100700.91;;;28.48;100.00
17383;BME280;8809;51.892;8.384;2023-06-22T10:37:03;100687.19;;;28.57;100.00
17383;BME280;8809;51.892;8.384;2023-06-22T10:39:30;100679.03;;;28.60;100.00
17383;BME280;8809;51.892;8.384;2023-06-22T10:41:58;100671.13;;;28.55;100.00
17383;BME280;8809;51.892;8.384;2023-06-22T10:44:25;100669.53;;;28.50;100.00
17383;BME280;8809;51.892;8.384;2023-06-22T10:46:54;100663.50;;;28.41;100.00
17383;BME280;8809;51.892;8.384;2023-06-22T10:49:22;100650.34;;;28.34;100.00
17383;BME280;8809;51.892;8.384;2023-06-22T10:51:49;100648.63;;;28.31;100.00
17383;BME280;8809;51.892;8.384;2023-06-22T10:54:16;100648.75;;;28.27;100.00
17383;BME280;8809;51.892;8.384;2023-06-22T10:56:45;100641.78;;;28.21;100.00
17383;BME280;8809;51.892;8.384;2023-06-22T10:59:12;100638.34;;;28.16;100.00
17383;BME280;8809;51.892;8.384;2023-06-22T11:01:41;100636.72;;;28.09;100.00
17383;BME280;8809;51.892;8.384;2023-06-22T11:04:11;100636.94;;;28.03;100.00
17383;BME280;8809;51.892;8.384;2023-06-22T11:06:39;100632.59;;;27.97;100.00
17383;BME280;8809;51.892;8.384;2023-06-22T11:09:06;100628.28;;;27.93;100.00
17383;BME280;8809;51.892;8.384;2023-06-22T11:11:33;100627.38;;;27.93;100.00
17383;BME280;8809;51.892;8.384;2023-06-22T11:14:04;100621.16;;;27.92;100.00
17383;BME280;8809;51.892;8.384;2023-06-22T11:16:34;100617.59;;;27.92;100.00
17383;BME280;8809;51.892;8.384;2023-06-22T11:19:01;100616.78;;;27.88;100.00
17383;BME280;8809;51.892;8.384;2023-06-22T11:21:30;100610.66;;;27.85;100.00
17383;BME280;8809;51.892;8.384;2023-06-22T11:23:58;100615.13;;;27.84;100.00
17383;BME280;8809;51.892;8.384;2023-06-22T11:26:26;100608.94;;;27.82;100.00
17383;BME280;8809;51.892;8.384;2023-06-22T11:28:53;100601.84;;;27.80;100.00
17383;BME280;8809;51.892;8.384;2023-06-22T11:31:20;100601.13;;;27.75;100.00
17383;BME280;8809;51.892;8.384;2023-06-22T11:33:47;100597.78;;;27.66;100.00
17383;BME280;8809;51.892;8.384;2023-06-22T11:36:15;100595.19;;;27.63;100.00
17383;BME280;8809;51.892;8.384;2023-06-22T11:38:47;100588.09;;;27.61;100.00
17383;BME280;8809;51.892;8.384;2023-06-22T11:41:15;100580.09;;;27.59;100.00
17383;BME280;8809;51.892;8.384;2023-06-22T11:43:43;100573.84;;;27.59;100.00
17383;BME280;8809;51.892;8.384;2023-06-22T11:46:10;100564.84;;;27.61;100.00
17383;BME280;8809;51.892;8.384;2023-06-22T11:48:38;100562.16;;;27.61;100.00
17383;BME280;8809;51.892;8.384;2023-06-22T11:51:06;100556.03;;;27.58;100.00
17383;BME280;8809;51.892;8.384;2023-06-22T11:53:34;100555.19;;;27.56;100.00
17383;BME280;8809;51.892;8.384;2023-06-22T11:56:03;100558.81;;;27.53;100.00
17383;BME280;8809;51.892;8.384;2023-06-22T11:58:31;100561.63;;;27.49;100.00
17383;BME280;8809;51.892;8.384;2023-06-22T12:00:58;100562.66;;;27.43;100.00
17383;BME280;8809;51.892;8.384;2023-06-22T12:03:25;100568.09;;;27.40;100.00
17383;BME280;8809;51.892;8.384;2023-06-22T12:05:55;100577.16;;;27.36;100.00
17383;BME280;8809;51.892;8.384;2023-06-22T12:08:23;100584.50;;;27.29;100.00
17383;BME280;8809;51.892;8.384;2023-06-22T12:10:50;100591.78;;;27.23;100.00
17383;BME280;8809;51.892;8.384;2023-06-22T12:13:21;100600.91;;;27.17;100.00
17383;BME280;8809;51.892;8.384;2023-06-22T12:15:48;100606.47;;;27.10;100.00
17383;BME280;8809;51.892;8.384;2023-06-22T12:18:18;100611.94;;;27.04;100.00
17383;BME280;8809;51.892;8.384;2023-06-22T12:20:46;100599.63;;;26.98;100.00
17383;BME280;8809;51.892;8.384;2023-06-22T12:23:14;100605.97;;;26.92;100.00
17383;BME280;8809;51.892;8.384;2023-06-22T12:25:44;100611.41;;;26.89;100.00
17383;BME280;8809;51.892;8.384;2023-06-22T12:28:14;100613.31;;;26.84;100.00
17383;BME280;8809;51.892;8.384;2023-06-22T12:30:48;100611.66;;;26.79;100.00
17383;BME280;8809;51.892;8.384;2023-06-22T12:33:16;100611.75;;;26.74;100.00
17383;BME280;8809;51.892;8.384;2023-06-22T12:35:43;100615.50;;;26.69;100.00
17383;BME280;8809;51.892;8.384;2023-06-22T12:38:11;100613.78;;;26.65;100.00
17383;BME280;8809;51.892;8.384;2023-06-22T12:40:39;100605.91;;;26.58;100.00
17383;BME280;8809;51.892;8.384;2023-06-22T12:43:06;100606.09;;;26.51;100.00
17383;BME280;8809;51.892;8.384;2023-06-22T12:45:34;100596.44;;;26.44;100.00
17383;BME280;8809;51.892;8.384;2023-06-22T12:48:03;100587.72;;;26.36;100.00
17383;BME280;8809;51.892;8.384;2023-06-22T12:50:30;100580.75;;;26.29;100.00
17383;BME280;8809;51.892;8.384;2023-06-22T12:53:00;100563.09;;;26.20;100.00
17383;BME280;8809;51.892;8.384;2023-06-22T12:55:28;100554.38;;;26.12;100.00
17383;BME280;8809;51.892;8.384;2023-06-22T12:57:56;100530.56;;;26.01;100.00
17383;BME280;8809;51.892;8.384;2023-06-22T13:00:23;100543.22;;;25.93;100.00
17383;BME280;8809;51.892;8.384;2023-06-22T13:02:53;100543.44;;;25.82;100.00
17383;BME280;8809;51.892;8.384;2023-06-22T13:05:23;100549.91;;;25.72;100.00
17383;BME280;8809;51.892;8.384;2023-06-22T13:07:53;100557.22;;;25.63;100.00
17383;BME280;8809;51.892;8.384;2023-06-22T13:10:20;100565.41;;;25.54;100.00
17383;BME280;8809;51.892;8.384;2023-06-22T13:12:47;100568.25;;;25.44;100.00
17383;BME280;8809;51.892;8.384;2023-06-22T13:15:17;100570.22;;;25.35;100.00
17383;BME280;8809;51.892;8.384;2023-06-22T13:17:47;100565.09;;;25.24;100.00
17383;BME280;8809;51.892;8.384;2023-06-22T13:20:15;100556.41;;;25.13;100.00
17383;BME280;8809;51.892;8.384;2023-06-22T13:22:44;100547.66;;;25.05;100.00
17383;BME280;8809;51.892;8.384;2023-06-22T13:25:11;100554.91;;;24.98;100.00
17383;BME280;8809;51.892;8.384;2023-06-22T13:27:39;100561.22;;;24.90;100.00
17383;BME280;8809;51.892;8.384;2023-06-22T13:30:08;100572.91;;;24.84;100.00
17383;BME280;8809;51.892;8.384;2023-06-22T13:32:35;100570.41;;;24.73;100.00
17383;BME280;8809;51.892;8.384;2023-06-22T13:53:46;100547.19;;;24.25;100.00
17383;BME280;8809;51.892;8.384;2023-06-22T13:56:14;100510.78;;;24.21;100.00
17383;BME280;8809;51.892;8.384;2023-06-22T13:58:41;100486.84;;;24.16;100.00
17383;BME280;8809;51.892;8.384;2023-06-22T14:01:09;100463.00;;;24.09;100.00
17383;BME280;8809;51.892;8.384;2023-06-22T14:03:37;100442.75;;;23.97;100.00
17383;BME280;8809;51.892;8.384;2023-06-22T14:06:04;100447.34;;;23.86;100.00
17383;BME280;8809;51.892;8.384;2023-06-22T14:08:32;100451.03;;;23.76;100.00
17383;BME280;8809;51.892;8.384;2023-06-22T14:11:00;100444.09;;;23.65;100.00
17383;BME280;8809;51.892;8.384;2023-06-22T14:16:09;100398.22;;;23.44;100.00
17383;BME280;8809;51.892;8.384;2023-06-22T14:18:38;100385.09;;;23.31;100.00
17383;BME280;8809;51.892;8.384;2023-06-22T14:21:06;100381.69;;;23.19;100.00
17383;BME280;8809;51.892;8.384;2023-06-22T14:23:37;100364.97;;;23.09;100.00
17383;BME280;8809;51.892;8.384;2023-06-22T14:29:59;100338.59;;;22.92;100.00
17383;BME280;8809;51.892;8.384;2023-06-22T14:32:38;100324.50;;;22.86;100.00
17383;BME280;8809;51.892;8.384;2023-06-22T14:40:46;100316.66;;;22.75;100.00
17383;BME280;8809;51.892;8.384;2023-06-22T14:44:10;100319.25;;;22.78;100.00
17383;BME280;8809;51.892;8.384;2023-06-22T14:50:29;100332.41;;;22.90;100.00
17383;BME280;8809;51.892;8.384;2023-06-22T14:53:16;100343.78;;;23.03;100.00
17383;BME280;8809;51.892;8.384;2023-06-22T14:55:49;100347.19;;;23.14;100.00
17383;BME280;8809;51.892;8.384;2023-06-22T14:58:16;100355.03;;;23.22;100.00
17383;BME280;8809;51.892;8.384;2023-06-22T15:00:42;100354.13;;;23.26;100.00
17383;BME280;8809;51.892;8.384;2023-06-22T15:03:10;100365.53;;;23.34;100.00
17383;BME280;8809;51.892;8.384;2023-06-22T15:05:52;100375.19;;;23.40;100.00
17383;BME280;8809;51.892;8.384;2023-06-22T15:08:36;100381.38;;;23.43;100.00
17383;BME280;8809;51.892;8.384;2023-06-22T15:11:17;100383.13;;;23.44;100.00
17383;BME280;8809;51.892;8.384;2023-06-22T15:13:47;100374.28;;;23.44;100.00
17383;BME280;8809;51.892;8.384;2023-06-22T15:19:57;100338.56;;;23.57;100.00
17383;BME280;8809;51.892;8.384;2023-06-22T15:22:58;100336.59;;;23.70;100.00
17383;BME280;8809;51.892;8.384;2023-06-22T15:26:07;100323.16;;;23.77;100.00
17383;BME280;8809;51.892;8.384;2023-06-22T15:28:38;100327.44;;;23.86;100.00
17383;BME280;8809;51.892;8.384;2023-06-22T15:31:15;100333.63;;;23.89;100.00
17383;BME280;8809;51.892;8.384;2023-06-22T15:33:48;100340.78;;;23.84;100.00
17383;BME280;8809;51.892;8.384;2023-06-22T15:54:37;100242.34;;;23.78;100.00
17383;BME280;8809;51.892;8.384;2023-06-22T15:57:34;100222.84;;;23.75;100.00
17383;BME280;8809;51.892;8.384;2023-06-22T16:00:15;100213.19;;;23.69;100.00